Terminal Aerodrome Forecast
Issued by NWS

Home | Current Version | Previous Version | Text Only | Print | Product List | Glossary On
Versions: 1 2 3 4 5 6 7 8 9 10 11 12 13 14 15 16 17
780
FTUS42 KFFC 221735
TAFFTY
TAF
KFTY 221735Z 2218/2318 20006KT P6SM VCSH BKN035
      TEMPO 2218/2220 VRB15G25KT 3SM TSRA BKN035CB
     FM222000 21007KT P6SM VCSH BKN045
     FM230100 00000KT P6SM FEW060 SCT250
     FM231100 00000KT P6SM FEW015
     FM231500 25005KT P6SM VCSH SCT035=

USA.gov is the U.S. government's official web portal to all federal, state and local government web resources and services.